sensor_id;sensor_type;location;lat;lon;timestamp;pressure;altitude;pressure_sealevel;temperature;humidity
59608;BME280;45426;44.726;10.390;2022-08-21T04:54:57;100115.66;;;22.55;100.00
59608;BME280;45426;44.726;10.390;2022-08-21T04:57:54;100120.34;;;22.58;100.00
59608;BME280;45426;44.726;10.390;2022-08-21T05:08:21;100127.06;;;22.33;100.00
59608;BME280;45426;44.726;10.390;2022-08-21T05:37:34;100141.22;;;22.86;100.00
59608;BME280;45426;44.726;10.390;2022-08-21T05:40:29;100131.97;;;23.36;100.00
59608;BME280;45426;44.726;10.390;2022-08-21T05:47:09;100136.72;;;23.56;100.00
59608;BME280;45426;44.726;10.390;2022-08-21T05:52:53;100127.28;;;23.90;100.00
59608;BME280;45426;44.726;10.390;2022-08-21T05:55:18;100129.91;;;23.77;100.00
59608;BME280;45426;44.726;10.390;2022-08-21T05:57:44;100128.31;;;23.79;100.00
59608;BME280;45426;44.726;10.390;2022-08-21T06:00:13;100127.06;;;24.00;100.00
59608;BME280;45426;44.726;10.390;2022-08-21T06:02:39;100127.50;;;24.15;100.00
59608;BME280;45426;44.726;10.390;2022-08-21T06:05:07;100129.97;;;23.93;100.00
59608;BME280;45426;44.726;10.390;2022-08-21T06:07:33;100138.59;;;24.15;100.00
59608;BME280;45426;44.726;10.390;2022-08-21T06:09:59;100144.41;;;24.37;100.00
59608;BME280;45426;44.726;10.390;2022-08-21T06:12:25;100145.97;;;24.38;100.00
59608;BME280;45426;44.726;10.390;2022-08-21T06:14:50;100136.78;;;24.41;100.00
59608;BME280;45426;44.726;10.390;2022-08-21T06:17:20;100140.69;;;24.60;100.00
59608;BME280;45426;44.726;10.390;2022-08-21T06:20:26;100135.91;;;24.77;100.00
59608;BME280;45426;44.726;10.390;2022-08-21T06:22:54;100136.72;;;24.62;100.00
59608;BME280;45426;44.726;10.390;2022-08-21T06:32:17;100133.31;;;25.71;100.00
59608;BME280;45426;44.726;10.390;2022-08-21T06:34:47;100136.63;;;25.66;100.00
59608;BME280;45426;44.726;10.390;2022-08-21T06:40:51;100136.41;;;26.50;100.00
59608;BME280;45426;44.726;10.390;2022-08-21T06:43:53;100137.44;;;26.91;100.00
59608;BME280;45426;44.726;10.390;2022-08-21T09:04:00;100089.19;;;33.00;100.00
59608;BME280;45426;44.726;10.390;2022-08-21T09:13:54;100086.44;;;32.59;100.00
59608;BME280;45426;44.726;10.390;2022-08-21T09:22:52;100085.03;;;31.58;100.00
59608;BME280;45426;44.726;10.390;2022-08-21T09:29:17;100073.22;;;31.89;100.00
59608;BME280;45426;44.726;10.390;2022-08-21T09:31:58;100076.28;;;32.06;100.00
59608;BME280;45426;44.726;10.390;2022-08-21T09:34:30;100071.53;;;32.12;100.00
59608;BME280;45426;44.726;10.390;2022-08-21T09:36:59;100065.50;;;32.19;100.00
59608;BME280;45426;44.726;10.390;2022-08-21T09:39:30;100062.19;;;32.62;100.00
59608;BME280;45426;44.726;10.390;2022-08-21T09:42:53;100058.09;;;32.42;100.00
59608;BME280;45426;44.726;10.390;2022-08-21T09:45:39;100062.56;;;32.28;100.00
59608;BME280;45426;44.726;10.390;2022-08-21T09:50:42;100057.13;;;31.69;100.00
59608;BME280;45426;44.726;10.390;2022-08-21T09:53:28;100055.72;;;31.79;100.00
59608;BME280;45426;44.726;10.390;2022-08-21T09:56:28;100053.81;;;32.26;100.00
59608;BME280;45426;44.726;10.390;2022-08-21T09:59:28;100048.19;;;32.26;100.00
59608;BME280;45426;44.726;10.390;2022-08-21T10:01:57;100048.34;;;32.38;100.00
59608;BME280;45426;44.726;10.390;2022-08-21T10:04:34;100052.66;;;31.98;100.00
59608;BME280;45426;44.726;10.390;2022-08-21T10:07:21;100058.56;;;32.00;100.00
59608;BME280;45426;44.726;10.390;2022-08-21T10:13:09;100051.00;;;32.47;100.00
59608;BME280;45426;44.726;10.390;2022-08-21T10:28:33;100049.06;;;33.05;100.00
59608;BME280;45426;44.726;10.390;2022-08-21T10:31:18;100051.63;;;33.03;100.00
59608;BME280;45426;44.726;10.390;2022-08-21T10:34:27;100044.34;;;32.91;100.00
59608;BME280;45426;44.726;10.390;2022-08-21T10:45:57;100030.13;;;32.54;100.00
59608;BME280;45426;44.726;10.390;2022-08-21T10:48:05;100036.22;;;32.73;100.00
59608;BME280;45426;44.726;10.390;2022-08-21T10:50:44;100029.81;;;33.24;100.00
59608;BME280;45426;44.726;10.390;2022-08-21T11:08:10;100030.53;;;32.93;100.00
59608;BME280;45426;44.726;10.390;2022-08-21T11:10:41;100030.22;;;33.12;100.00
59608;BME280;45426;44.726;10.390;2022-08-21T11:13:25;100020.22;;;32.84;100.00
59608;BME280;45426;44.726;10.390;2022-08-21T11:16:41;100016.03;;;33.00;100.00
59608;BME280;45426;44.726;10.390;2022-08-21T11:19:16;100002.88;;;33.18;100.00
59608;BME280;45426;44.726;10.390;2022-08-21T11:21:47;100006.88;;;33.37;100.00
59608;BME280;45426;44.726;10.390;2022-08-21T11:27:39;100002.63;;;33.53;100.00
59608;BME280;45426;44.726;10.390;2022-08-21T11:29:39;99998.53;;;33.17;100.00
59608;BME280;45426;44.726;10.390;2022-08-21T11:42:26;99990.09;;;33.17;100.00
59608;BME280;45426;44.726;10.390;2022-08-21T11:47:30;99991.25;;;33.74;100.00
59608;BME280;45426;44.726;10.390;2022-08-21T11:50:13;99988.97;;;33.40;100.00
59608;BME280;45426;44.726;10.390;2022-08-21T11:52:45;99982.88;;;33.47;100.00
59608;BME280;45426;44.726;10.390;2022-08-21T11:55:33;99976.78;;;33.55;100.00
59608;BME280;45426;44.726;10.390;2022-08-21T12:00:47;99977.56;;;33.18;100.00
59608;BME280;45426;44.726;10.390;2022-08-21T12:03:29;99977.63;;;33.67;100.00
59608;BME280;45426;44.726;10.390;2022-08-21T12:06:08;99977.94;;;33.05;100.00
59608;BME280;45426;44.726;10.390;2022-08-21T12:08:36;99965.84;;;33.25;100.00
59608;BME280;45426;44.726;10.390;2022-08-21T12:11:09;99962.06;;;33.71;100.00
59608;BME280;45426;44.726;10.390;2022-08-21T12:13:52;99969.75;;;33.76;100.00
59608;BME280;45426;44.726;10.390;2022-08-21T12:16:34;99962.28;;;33.68;100.00
59608;BME280;45426;44.726;10.390;2022-08-21T12:19:06;99957.13;;;34.20;100.00
59608;BME280;45426;44.726;10.390;2022-08-21T12:21:33;99953.72;;;33.51;100.00
59608;BME280;45426;44.726;10.390;2022-08-21T12:26:57;99948.78;;;33.89;100.00
59608;BME280;45426;44.726;10.390;2022-08-21T12:29:28;99942.72;;;33.53;100.00
59608;BME280;45426;44.726;10.390;2022-08-21T12:34:36;99939.53;;;33.28;100.00
59608;BME280;45426;44.726;10.390;2022-08-21T12:37:07;99935.47;;;33.03;100.00
59608;BME280;45426;44.726;10.390;2022-08-21T12:39:38;99925.09;;;32.83;100.00
59608;BME280;45426;44.726;10.390;2022-08-21T12:42:23;99931.06;;;33.28;100.00
59608;BME280;45426;44.726;10.390;2022-08-21T12:44:54;99926.22;;;32.65;100.00
59608;BME280;45426;44.726;10.390;2022-08-21T12:47:31;99918.34;;;33.44;100.00
59608;BME280;45426;44.726;10.390;2022-08-21T12:50:09;99920.84;;;33.79;100.00
59608;BME280;45426;44.726;10.390;2022-08-21T12:52:40;99905.59;;;33.49;100.00
59608;BME280;45426;44.726;10.390;2022-08-21T12:55:12;99912.75;;;33.50;100.00
59608;BME280;45426;44.726;10.390;2022-08-21T12:57:39;99898.69;;;33.55;100.00
59608;BME280;45426;44.726;10.390;2022-08-21T13:00:08;99910.03;;;33.67;100.00
59608;BME280;45426;44.726;10.390;2022-08-21T13:02:43;99910.91;;;32.66;100.00
59608;BME280;45426;44.726;10.390;2022-08-21T13:05:14;99905.84;;;33.51;100.00
59608;BME280;45426;44.726;10.390;2022-08-21T13:07:45;99902.50;;;33.46;100.00
59608;BME280;45426;44.726;10.390;2022-08-21T13:10:24;99892.75;;;33.42;100.00
59608;BME280;45426;44.726;10.390;2022-08-21T13:12:56;99894.97;;;33.70;100.00
59608;BME280;45426;44.726;10.390;2022-08-21T13:15:27;99891.88;;;33.68;100.00
59608;BME280;45426;44.726;10.390;2022-08-21T13:17:53;99887.53;;;33.78;100.00
59608;BME280;45426;44.726;10.390;2022-08-21T13:20:22;99881.97;;;33.95;100.00
59608;BME280;45426;44.726;10.390;2022-08-21T13:22:49;99883.53;;;33.41;100.00
59608;BME280;45426;44.726;10.390;2022-08-21T13:25:18;99882.25;;;32.99;100.00
59608;BME280;45426;44.726;10.390;2022-08-21T13:27:57;99880.13;;;33.69;100.00
59608;BME280;45426;44.726;10.390;2022-08-21T13:30:23;99879.66;;;33.82;100.00
59608;BME280;45426;44.726;10.390;2022-08-21T13:32:56;99878.06;;;33.70;100.00
59608;BME280;45426;44.726;10.390;2022-08-21T13:35:26;99869.94;;;34.00;100.00
59608;BME280;45426;44.726;10.390;2022-08-21T13:37:54;99872.88;;;33.62;100.00
59608;BME280;45426;44.726;10.390;2022-08-21T13:40:46;99868.78;;;33.58;100.00
59608;BME280;45426;44.726;10.390;2022-08-21T13:43:19;99865.03;;;33.83;100.00
59608;BME280;45426;44.726;10.390;2022-08-21T13:45:52;99869.78;;;33.55;100.00
59608;BME280;45426;44.726;10.390;2022-08-21T13:48:29;99856.53;;;33.67;100.00
59608;BME280;45426;44.726;10.390;2022-08-21T13:50:56;99864.03;;;33.87;100.00
59608;BME280;45426;44.726;10.390;2022-08-21T13:53:30;99855.25;;;33.68;100.00
59608;BME280;45426;44.726;10.390;2022-08-21T13:55:57;99857.91;;;33.28;100.00
59608;BME280;45426;44.726;10.390;2022-08-21T13:58:48;99854.19;;;33.59;100.00
59608;BME280;45426;44.726;10.390;2022-08-21T14:01:33;99848.81;;;33.56;100.00
59608;BME280;45426;44.726;10.390;2022-08-21T14:04:56;99850.03;;;33.43;100.00
59608;BME280;45426;44.726;10.390;2022-08-21T14:07:47;99839.31;;;33.53;100.00
59608;BME280;45426;44.726;10.390;2022-08-21T14:10:19;99837.88;;;33.69;100.00
59608;BME280;45426;44.726;10.390;2022-08-21T14:13:14;99842.72;;;33.74;100.00
59608;BME280;45426;44.726;10.390;2022-08-21T14:16:22;99833.81;;;33.27;100.00
59608;BME280;45426;44.726;10.390;2022-08-21T14:28:52;99827.47;;;33.32;100.00
59608;BME280;45426;44.726;10.390;2022-08-21T14:31:19;99821.03;;;33.26;100.00
59608;BME280;45426;44.726;10.390;2022-08-21T15:10:59;99809.03;;;33.37;100.00
59608;BME280;45426;44.726;10.390;2022-08-21T15:20:41;99809.50;;;33.18;100.00
59608;BME280;45426;44.726;10.390;2022-08-21T15:26:54;99802.28;;;33.12;100.00
59608;BME280;45426;44.726;10.390;2022-08-21T15:29:22;99800.09;;;32.89;100.00
59608;BME280;45426;44.726;10.390;2022-08-21T15:32:34;99807.97;;;33.23;100.00
59608;BME280;45426;44.726;10.390;2022-08-21T15:34:59;99808.75;;;33.29;100.00
59608;BME280;45426;44.726;10.390;2022-08-21T16:10:23;99780.25;;;32.61;100.00
59608;BME280;45426;44.726;10.390;2022-08-21T17:31:44;99766.81;;;31.61;100.00
59608;BME280;45426;44.726;10.390;2022-08-21T17:34:47;99768.63;;;31.43;100.00
59608;BME280;45426;44.726;10.390;2022-08-21T17:37:16;99767.53;;;31.35;100.00
59608;BME280;45426;44.726;10.390;2022-08-21T17:43:06;99767.63;;;31.00;100.00
59608;BME280;45426;44.726;10.390;2022-08-21T17:45:44;99772.44;;;30.99;100.00
59608;BME280;45426;44.726;10.390;2022-08-21T17:48:12;99769.97;;;30.86;100.00
59608;BME280;45426;44.726;10.390;2022-08-21T17:50:38;99773.69;;;30.63;100.00
59608;BME280;45426;44.726;10.390;2022-08-21T17:53:13;99766.88;;;30.49;100.00
59608;BME280;45426;44.726;10.390;2022-08-21T17:55:41;99775.06;;;30.37;100.00
59608;BME280;45426;44.726;10.390;2022-08-21T17:58:11;99771.22;;;30.20;100.00
59608;BME280;45426;44.726;10.390;2022-08-21T18:00:46;99768.03;;;30.27;100.00
59608;BME280;45426;44.726;10.390;2022-08-21T18:03:15;99781.19;;;30.06;100.00
59608;BME280;45426;44.726;10.390;2022-08-21T18:06:00;99778.16;;;29.80;100.00
59608;BME280;45426;44.726;10.390;2022-08-21T18:18:50;99780.53;;;29.72;100.00
59608;BME280;45426;44.726;10.390;2022-08-21T18:24:37;99776.53;;;29.49;100.00
59608;BME280;45426;44.726;10.390;2022-08-21T18:27:12;99779.06;;;29.62;100.00
59608;BME280;45426;44.726;10.390;2022-08-21T18:33:08;99789.38;;;29.17;100.00
59608;BME280;45426;44.726;10.390;2022-08-21T18:36:45;99788.59;;;29.40;100.00
59608;BME280;45426;44.726;10.390;2022-08-21T18:39:27;99791.19;;;29.44;100.00
59608;BME280;45426;44.726;10.390;2022-08-21T18:42:14;99804.56;;;29.40;100.00
59608;BME280;45426;44.726;10.390;2022-08-21T18:44:45;99799.56;;;29.29;100.00
59608;BME280;45426;44.726;10.390;2022-08-21T18:47:35;99805.19;;;29.20;100.00
59608;BME280;45426;44.726;10.390;2022-08-21T18:50:11;99800.84;;;29.19;100.00
59608;BME280;45426;44.726;10.390;2022-08-21T18:53:22;99810.81;;;29.11;100.00
59608;BME280;45426;44.726;10.390;2022-08-21T18:55:54;99806.63;;;29.15;100.00
59608;BME280;45426;44.726;10.390;2022-08-21T19:01:48;99811.22;;;28.61;100.00
59608;BME280;45426;44.726;10.390;2022-08-21T19:04:58;99817.56;;;28.95;100.00
59608;BME280;45426;44.726;10.390;2022-08-21T19:07:35;99817.03;;;28.81;100.00
59608;BME280;45426;44.726;10.390;2022-08-21T19:10:04;99824.56;;;28.66;100.00
59608;BME280;45426;44.726;10.390;2022-08-21T19:12:36;99822.41;;;28.42;100.00
59608;BME280;45426;44.726;10.390;2022-08-21T19:15:02;99822.47;;;28.24;100.00
59608;BME280;45426;44.726;10.390;2022-08-21T19:17:28;99832.72;;;27.44;100.00
59608;BME280;45426;44.726;10.390;2022-08-21T19:20:00;99832.66;;;27.16;100.00
59608;BME280;45426;44.726;10.390;2022-08-21T19:22:29;99841.41;;;26.96;100.00
59608;BME280;45426;44.726;10.390;2022-08-21T19:24:54;99836.47;;;27.00;100.00
59608;BME280;45426;44.726;10.390;2022-08-21T19:27:40;99838.63;;;27.46;100.00
59608;BME280;45426;44.726;10.390;2022-08-21T19:30:11;99841.13;;;27.99;100.00
59608;BME280;45426;44.726;10.390;2022-08-21T19:36:07;99847.47;;;28.00;100.00
59608;BME280;45426;44.726;10.390;2022-08-21T19:38:41;99849.47;;;27.81;100.00
59608;BME280;45426;44.726;10.390;2022-08-21T19:46:54;99860.16;;;26.42;100.00
59608;BME280;45426;44.726;10.390;2022-08-21T19:49:45;99857.66;;;26.35;100.00
59608;BME280;45426;44.726;10.390;2022-08-21T19:52:21;99856.78;;;26.47;100.00
59608;BME280;45426;44.726;10.390;2022-08-21T19:54:47;99857.44;;;26.51;100.00
59608;BME280;45426;44.726;10.390;2022-08-21T19:57:13;99859.00;;;26.52;100.00
59608;BME280;45426;44.726;10.390;2022-08-21T19:59:49;99854.72;;;26.39;100.00
59608;BME280;45426;44.726;10.390;2022-08-21T20:02:24;99849.41;;;26.53;100.00
59608;BME280;45426;44.726;10.390;2022-08-21T20:05:03;99853.56;;;26.49;100.00
59608;BME280;45426;44.726;10.390;2022-08-21T20:07:34;99854.91;;;26.66;100.00
59608;BME280;45426;44.726;10.390;2022-08-21T20:09:59;99851.34;;;26.66;100.00
59608;BME280;45426;44.726;10.390;2022-08-21T20:12:34;99851.34;;;26.44;100.00
59608;BME280;45426;44.726;10.390;2022-08-21T20:15:05;99857.69;;;26.66;100.00
59608;BME280;45426;44.726;10.390;2022-08-21T20:17:40;99855.00;;;26.31;100.00
59608;BME280;45426;44.726;10.390;2022-08-21T20:20:14;99852.06;;;26.57;100.00
59608;BME280;45426;44.726;10.390;2022-08-21T20:22:45;99852.06;;;26.88;100.00
59608;BME280;45426;44.726;10.390;2022-08-21T20:25:18;99854.88;;;26.98;100.00
59608;BME280;45426;44.726;10.390;2022-08-21T20:27:55;99847.19;;;27.11;100.00
59608;BME280;45426;44.726;10.390;2022-08-21T20:30:26;99847.19;;;27.11;100.00
59608;BME280;45426;44.726;10.390;2022-08-21T20:33:13;99860.03;;;26.68;100.00
59608;BME280;45426;44.726;10.390;2022-08-21T20:35:49;99851.19;;;27.10;100.00
59608;BME280;45426;44.726;10.390;2022-08-21T20:38:27;99853.19;;;27.00;100.00
59608;BME280;45426;44.726;10.390;2022-08-21T20:41:00;99855.66;;;26.36;100.00
59608;BME280;45426;44.726;10.390;2022-08-21T20:46:24;99855.81;;;26.95;100.00
59608;BME280;45426;44.726;10.390;2022-08-21T20:49:01;99853.97;;;27.01;100.00
59608;BME280;45426;44.726;10.390;2022-08-21T20:51:57;99856.75;;;26.91;100.00
59608;BME280;45426;44.726;10.390;2022-08-21T20:54:51;99865.28;;;26.66;100.00
59608;BME280;45426;44.726;10.390;2022-08-21T20:59:58;99863.69;;;26.33;100.00
59608;BME280;45426;44.726;10.390;2022-08-21T21:05:23;99863.84;;;26.92;100.00
59608;BME280;45426;44.726;10.390;2022-08-21T21:08:15;99863.09;;;26.39;100.00
59608;BME280;45426;44.726;10.390;2022-08-21T21:11:04;99870.53;;;26.20;100.00
59608;BME280;45426;44.726;10.390;2022-08-21T21:13:40;99875.28;;;26.10;100.00
59608;BME280;45426;44.726;10.390;2022-08-21T21:16:35;99880.34;;;25.42;100.00
59608;BME280;45426;44.726;10.390;2022-08-21T21:19:13;99885.63;;;25.74;100.00
59608;BME280;45426;44.726;10.390;2022-08-21T21:25:12;99888.31;;;25.65;100.00
59608;BME280;45426;44.726;10.390;2022-08-21T21:27:56;99888.66;;;26.02;100.00
59608;BME280;45426;44.726;10.390;2022-08-21T21:30:41;99889.63;;;26.08;100.00
59608;BME280;45426;44.726;10.390;2022-08-21T21:33:12;99885.63;;;26.09;100.00
59608;BME280;45426;44.726;10.390;2022-08-21T21:36:15;99874.28;;;26.26;100.00
59608;BME280;45426;44.726;10.390;2022-08-21T21:39:02;99886.81;;;25.73;100.00
59608;BME280;45426;44.726;10.390;2022-08-21T21:41:40;99877.09;;;26.04;100.00
59608;BME280;45426;44.726;10.390;2022-08-21T21:51:01;99886.91;;;25.83;100.00
59608;BME280;45426;44.726;10.390;2022-08-21T21:54:01;99890.03;;;25.50;100.00
59608;BME280;45426;44.726;10.390;2022-08-21T21:56:43;99875.25;;;25.27;100.00
59608;BME280;45426;44.726;10.390;2022-08-21T22:07:55;99891.16;;;25.01;100.00
59608;BME280;45426;44.726;10.390;2022-08-21T22:11:05;99891.88;;;25.53;100.00
59608;BME280;45426;44.726;10.390;2022-08-21T22:16:33;99893.50;;;25.03;100.00
59608;BME280;45426;44.726;10.390;2022-08-21T22:19:10;99897.91;;;25.13;100.00
59608;BME280;45426;44.726;10.390;2022-08-21T22:21:49;99891.59;;;25.12;100.00
59608;BME280;45426;44.726;10.390;2022-08-21T22:24:37;99893.13;;;24.75;100.00
59608;BME280;45426;44.726;10.390;2022-08-21T22:27:11;99889.44;;;24.78;100.00
59608;BME280;45426;44.726;10.390;2022-08-21T22:32:34;99891.03;;;24.50;100.00
59608;BME280;45426;44.726;10.390;2022-08-21T22:35:15;99895.25;;;24.71;100.00
59608;BME280;45426;44.726;10.390;2022-08-21T22:37:48;99896.94;;;24.39;100.00
59608;BME280;45426;44.726;10.390;2022-08-21T22:40:34;99903.00;;;24.34;100.00
59608;BME280;45426;44.726;10.390;2022-08-21T22:43:04;99904.66;;;24.02;100.00
59608;BME280;45426;44.726;10.390;2022-08-21T22:48:32;99909.72;;;24.49;100.00
59608;BME280;45426;44.726;10.390;2022-08-21T22:51:04;99905.19;;;24.55;100.00
59608;BME280;45426;44.726;10.390;2022-08-21T22:53:41;99901.91;;;24.73;100.00
59608;BME280;45426;44.726;10.390;2022-08-21T22:56:28;99904.56;;;24.77;100.00
59608;BME280;45426;44.726;10.390;2022-08-21T22:59:24;99900.25;;;24.89;100.00
59608;BME280;45426;44.726;10.390;2022-08-21T23:04:48;99892.78;;;24.73;100.00
59608;BME280;45426;44.726;10.390;2022-08-21T23:07:46;99894.78;;;24.85;100.00
59608;BME280;45426;44.726;10.390;2022-08-21T23:13:20;99904.13;;;24.07;100.00
59608;BME280;45426;44.726;10.390;2022-08-21T23:16:06;99903.19;;;23.97;100.00
59608;BME280;45426;44.726;10.390;2022-08-21T23:45:53;99889.50;;;25.29;100.00
